createdAt,value
2019-06-15T00:01:27.174Z,37
2019-06-15T00:11:26.775Z,38
2019-06-15T00:21:27.923Z,36
2019-06-15T00:31:28.248Z,36
2019-06-15T00:41:28.110Z,36
2019-06-15T00:51:26.930Z,36
2019-06-15T01:01:28.048Z,36
2019-06-15T01:11:27.190Z,38
2019-06-15T01:21:27.537Z,36
2019-06-15T01:31:28.619Z,36
2019-06-15T01:41:27.491Z,36
2019-06-15T01:51:27.745Z,38
2019-06-15T02:01:28.102Z,37
2019-06-15T02:11:32.372Z,39
2019-06-15T02:21:27.774Z,39
2019-06-15T02:31:27.920Z,39
2019-06-15T02:41:27.283Z,38
2019-06-15T02:51:27.363Z,38
2019-06-15T03:01:28.512Z,37
2019-06-15T03:11:27.532Z,40
2019-06-15T03:21:33.884Z,38
2019-06-15T03:31:26.531Z,37
2019-06-15T03:41:27.330Z,41
2019-06-15T03:51:28.852Z,37
2019-06-15T04:01:28.110Z,40
2019-06-15T04:11:26.837Z,38
2019-06-15T04:21:26.506Z,41
2019-06-15T04:31:27.887Z,38
2019-06-15T04:41:26.946Z,40
2019-06-15T04:51:26.650Z,37
2019-06-15T05:01:31.925Z,36
2019-06-15T05:11:28.836Z,36
2019-06-15T05:21:26.863Z,37
2019-06-15T05:31:33.287Z,40
2019-06-15T05:41:27.560Z,39
2019-06-15T05:51:27.263Z,38
2019-06-15T06:01:27.854Z,37
2019-06-15T06:11:27.791Z,37
2019-06-15T06:21:26.998Z,40
2019-06-15T06:31:26.840Z,38
2019-06-15T06:41:28.388Z,38
2019-06-15T06:51:28.059Z,38
2019-06-15T07:01:27.400Z,39
2019-06-15T07:11:28.129Z,36
2019-06-15T07:21:27.106Z,36
2019-06-15T07:31:27.231Z,39
2019-06-15T07:41:26.967Z,38
2019-06-15T07:51:28.082Z,36
2019-06-15T08:01:26.698Z,36
2019-06-15T08:11:28.354Z,37
2019-06-15T08:21:27.513Z,36
2019-06-15T08:31:28.121Z,36
2019-06-15T08:41:27.266Z,39
2019-06-15T08:51:27.006Z,36
2019-06-15T09:01:27.261Z,38
2019-06-15T09:11:27.034Z,37
2019-06-15T09:21:26.835Z,37
2019-06-15T09:31:29.252Z,35
2019-06-15T09:41:27.758Z,35
2019-06-15T09:51:27.580Z,35
2019-06-15T10:01:27.435Z,37
2019-06-15T10:11:27.924Z,35
2019-06-15T10:21:27.098Z,35
2019-06-15T10:31:27.536Z,34
2019-06-15T10:41:27.954Z,34
2019-06-15T10:51:27.108Z,33
2019-06-15T11:01:26.956Z,35
2019-06-15T11:11:27.460Z,34
2019-06-15T11:21:29.781Z,33
2019-06-15T11:31:27.965Z,33
2019-06-15T11:41:26.728Z,33
2019-06-15T11:51:28.344Z,33
2019-06-15T12:01:28.246Z,33
2019-06-15T12:11:27.206Z,33
2019-06-15T12:21:27.677Z,34
2019-06-15T12:31:27.658Z,34
2019-06-15T12:41:27.462Z,34
2019-06-15T12:51:27.465Z,34
2019-06-15T13:01:27.194Z,34
2019-06-15T13:11:27.413Z,34
2019-06-15T13:21:27.817Z,34
2019-06-15T13:31:27.992Z,33
2019-06-15T13:41:27.752Z,32
2019-06-15T13:51:27.594Z,32
2019-06-15T14:01:36.362Z,32
2019-06-15T14:11:27.593Z,32
2019-06-15T14:21:28.133Z,32
2019-06-15T14:31:27.518Z,32
2019-06-15T14:41:27.348Z,32
2019-06-15T14:51:27.548Z,32
2019-06-15T15:01:29.094Z,31
2019-06-15T15:11:28.351Z,32
2019-06-15T15:21:28.397Z,31
2019-06-15T15:31:29.093Z,31
2019-06-15T15:41:28.464Z,31
2019-06-15T15:51:28.575Z,31
2019-06-15T16:01:29.295Z,31
2019-06-15T16:11:28.617Z,31
2019-06-15T16:21:28.371Z,32
2019-06-15T16:31:31.163Z,31
2019-06-15T16:41:27.783Z,31
2019-06-15T16:51:28.791Z,33
2019-06-15T17:01:30.711Z,31
2019-06-15T17:11:29.277Z,30
2019-06-15T17:21:27.941Z,30
2019-06-15T17:31:29.034Z,30
2019-06-15T17:41:29.340Z,30
2019-06-15T17:51:28.773Z,31
2019-06-15T18:01:28.509Z,32
2019-06-15T18:11:28.596Z,32
2019-06-15T18:21:28.929Z,32
2019-06-15T18:31:29.030Z,33
2019-06-15T18:41:28.590Z,32
2019-06-15T18:51:29.028Z,33
2019-06-15T19:01:29.186Z,33
2019-06-15T19:11:29.390Z,32
2019-06-15T19:21:27.966Z,33
2019-06-15T19:31:29.810Z,33
2019-06-15T19:41:28.630Z,33
2019-06-15T19:51:30.482Z,34
2019-06-15T20:01:29.193Z,33
2019-06-15T20:11:28.991Z,33
2019-06-15T20:21:32.505Z,33
2019-06-15T20:31:28.609Z,33
2019-06-15T20:41:28.817Z,34
2019-06-15T20:51:28.090Z,33
2019-06-15T21:01:27.911Z,34
2019-06-15T21:11:28.375Z,34
2019-06-15T21:21:29.652Z,35
2019-06-15T21:31:29.678Z,34
2019-06-15T21:41:28.601Z,35
2019-06-15T21:51:28.969Z,35
2019-06-15T22:01:28.168Z,34
2019-06-15T22:11:28.612Z,34
2019-06-15T22:21:30.151Z,36
2019-06-15T22:31:27.104Z,35
2019-06-15T22:41:27.502Z,35
2019-06-15T22:51:29.558Z,35
2019-06-15T23:01:28.846Z,34
2019-06-15T23:11:28.787Z,35
2019-06-15T23:21:28.915Z,36
2019-06-15T23:31:26.879Z,34
2019-06-15T23:41:29.193Z,35
2019-06-15T23:51:28.405Z,36
